Report METAR

 

KSJC - San Jose, California, USA
Distance from station: NE 14km
Dati ricevuti: 15/10/2019 02:53
Sereno
Sereno
 Vento da NNO
Vento: NNO 15 km/h
Temperatura: 19°C
P.to Rugiada: 12°C
Umidità: 64%
Barometro: 1014.2 hPa
Nuvole: Sereno
Visibility: 16 km
2019/10/15 00:53 KSJC 150053Z 33008KT 10SM CLR 19/12 A2995 RMK AO2 SLP141 T01890122
KNUQ - Moffett Nas/Mtn, California, USA
Distance from station: N 14km
Dati ricevuti: 15/10/2019 02:56

 
Barometro: 1014.6 hPa
2019/10/15 00:56 KNUQ 150056Z A2996 RMK AO2 SLP149 PWINO $
 
KPAO - Palo Alto, California, USA
Distance from station: NNO 23km
Dati ricevuti: 15/10/2019 02:47
Sereno
Sereno
 Vento da NO
Vento: NO 19 km/h
Temperatura: 17°C
P.to Rugiada: 11°C
Umidità: 68%
Barometro: 1014.6 hPa
Nuvole: Sereno
Visibility: 16 km
2019/10/15 00:47 KPAO 150047Z 32010KT 10SM SKC 17/11 A2996
KRHV - San Jose/Reid, California, USA
Distance from station: ENE 19km
Dati ricevuti: 15/10/2019 02:47
Sereno
Sereno
 Vento da ONO
Vento: ONO 15 km/h
Temperatura: 22°C
P.to Rugiada: 4°C
Umidità: 31%
Barometro: 1014.2 hPa
Nuvole: Sereno
Visibility: 16 km
2019/10/15 00:47 KRHV 150047Z 29008KT 10SM SKC 22/04 A2995
 
KOAK - Oakland, California, USA
Distance from station: NNO 50km
Dati ricevuti: 15/10/2019 02:53
Few Clouds
Few Clouds
 Vento da ONO
Vento: ONO 13 km/h
Temperatura: 16°C
P.to Rugiada: 10°C
Umidità: 68%
Barometro: 1014.6 hPa
Nuvole: Few Clouds
Visibility: 16 km
Cloud details: Few Clouds 305 m
Few Clouds 6096 m
2019/10/15 00:53 KOAK 150053Z 30007KT 10SM FEW010 FEW200 16/10 A2996 RMK AO2 SLP147 T01610100 $
KSQL - San Carlos Airpo, California, USA
Distance from station: NO 34km
Dati ricevuti: 15/10/2019 02:47
Sereno
Sereno
 Vento da O
Vento: O 11 km/h
Temperatura: 19°C
P.to Rugiada: 9°C
Umidità: 52%
Barometro: 1014.6 hPa
Nuvole: Sereno
Visibility: 16 km
2019/10/15 00:47 KSQL 150047Z 26006KT 10SM SKC 19/09 A2996
 
KSFO - San Francisco, California, USA
Distance from station: NO 49km
Dati ricevuti: 15/10/2019 02:56
Few Clouds
Few Clouds
 Vento da ONO
Vento: ONO 24 km/h
Temperatura: 14°C
P.to Rugiada: 9°C
Umidità: 72%
Barometro: 1014.2 hPa
Nuvole: Few Clouds
Visibility: 16 km
Cloud details: Few Clouds 244 m
2019/10/15 00:56 KSFO 150056Z 29013KT 10SM FEW008 14/09 A2995 RMK AO2 SLP143 T01440094
KE16 - San Martin, California, USA
Distance from station: ESE 43km
Dati ricevuti: 15/10/2019 03:15
Sereno
Sereno
 Vento da SE
Vento: SE 15 km/h
Temperatura: 19°C
P.to Rugiada: 7°C
Umidità: 46%
Barometro: 1014.9 hPa
Nuvole: Sereno
Visibility: 16 km
2019/10/15 01:15 KE16 150115Z AUTO 14008KT 10SM CLR 19/07 A2997 RMK AO2 PWINO PNO
 
KWVI - Watsonville, California, USA
Distance from station: SSE 44km
Dati ricevuti: 15/10/2019 02:53
Sereno
Sereno
 Vento da OSO
Vento: OSO 11 km/h
Temperatura: 14°C
P.to Rugiada: 10°C
Umidità: 77%
Barometro: 1015.6 hPa
Nuvole: Sereno
Visibility: 16 km
2019/10/15 00:53 KWVI 150053Z AUTO 24006KT 10SM CLR 14/10 A2999 RMK AO2 SLP156 T01390100
KHAF - Half Moon Bay, California, USA
Distance from station: ONO 50km
Dati ricevuti: 15/10/2019 03:15
Mist, Nubi sparse
Mist, Nubi sparse
 Vento da ONO
Vento: ONO 11 km/h
Temperatura: 12°C
P.to Rugiada: 10°C
Umidità: 88%
Barometro: 1016.3 hPa
Summary: Mist
Nuvole: Few Clouds
Visibility: 8 km
Cloud details: Few Clouds 427 m
2019/10/15 01:15 KHAF 150115Z AUTO 29006KT 5SM BR FEW014 12/10 A3001 RMK AO2
 
KHWD - Hayward, California, USA
Distance from station: N 44km
Dati ricevuti: 15/10/2019 02:54
Sereno
Sereno
 Vento da ONO
Vento: ONO 20 km/h
Temperatura: 17°C
P.to Rugiada: 11°C
Umidità: 68%
Barometro: 1014.6 hPa
Nuvole: Sereno
Visibility: 16 km
2019/10/15 00:54 KHWD 150054Z 29011KT 10SM CLR 17/11 A2996 RMK AO2 SLP154 T01670106
KLVK - Livermore, California, USA
Distance from station: NNE 51km
Dati ricevuti: 15/10/2019 02:53
Sereno
Sereno
 Vento da O
Vento: O 15 km/h
Temperatura: 22°C
P.to Rugiada: 7°C
Umidità: 38%
Barometro: 1013.5 hPa
Nuvole: Sereno
Visibility: 16 km
2019/10/15 00:53 KLVK 150053Z 28008KT 10SM CLR 22/07 A2993 RMK AO2 SLP133 T02220067